This is the latest recevied weather packets stored in our database for station/object IZ1RFL-3. If no packets are shown the sender has not sent any weather packets the latest 10 day(s).
| Time | Temp. | Humidity | Pressure | Rain* | Wind** | Luminosity | Snow |
|---|---|---|---|---|---|---|---|
| 1787764300 | 27.78° C | 45% | 1017.4 hPa | - | - | - | - |
| 1787763400 | 28.33° C | 49% | 1017.6 hPa | - | - | - | - |
| 1787762500 | 28.33° C | 48% | 1017.5 hPa | - | - | - | - |
| 1787761600 | 28.89° C | 46% | 1017.5 hPa | - | - | - | - |
| 1787760700 | 28.89° C | 44% | 1017.6 hPa | - | - | - | - |
| 1787759800 | 29.44° C | 44% | 1017.3 hPa | - | - | - | - |
| 1787758900 | 29.44° C | 45% | 1016.9 hPa | - | - | - | - |
| 1787758000 | 30° C | 47% | 1016.9 hPa | - | - | - | - |
| 1787757100 | 29.44° C | 48% | 1017.5 hPa | - | - | - | - |
| 1787756199 | 30° C | 46% | 1017.5 hPa | - | - | - | - |
| 1787755300 | 28.33° C | 50% | 1017.7 hPa | - | - | - | - |
| 1787754400 | 28.89° C | 48% | 1017.5 hPa | - | - | - | - |
| 1787753500 | 29.44° C | 45% | 1017.5 hPa | - | - | - | - |
| 1787752599 | 30° C | 44% | 1017.5 hPa | - | - | - | - |
| 1787751700 | 30.56° C | 42% | 1017.9 hPa | - | - | - | - |
| 1787750800 | 31.67° C | 40% | 1017.8 hPa | - | - | - | - |
| 1787749900 | 30° C | 43% | 1017.8 hPa | - | - | - | - |
| 1787749000 | 29.44° C | 45% | 1018.3 hPa | - | - | - | - |
| 1787748100 | 30° C | 43% | 1018.6 hPa | - | - | - | - |
| 1787747200 | 29.44° C | 43% | 1018.5 hPa | - | - | - | - |
| 1787746299 | 29.44° C | 48% | 1018.7 hPa | - | - | - | - |
| 1787745399 | 30.56° C | 45% | 1018.7 hPa | - | - | - | - |
| 1787744499 | 29.44° C | 47% | 1018.5 hPa | - | - | - | - |
| 1787743600 | 28.89° C | 49% | 1018.8 hPa | - | - | - | - |
| 1787742699 | 31.11° C | 45% | 1018.8 hPa | - | - | - | - |
* Rain since midnight (hover to see other rain measurements)
** Current wind speed in m/s (hover to see current wind gust speed)